sensor_id;sensor_type;location;lat;lon;timestamp;P1;durP1;ratioP1;P2;durP2;ratioP2
13733;SDS011;43298;52.560;13.508;2023-05-29T00:00:20;11.48;;;10.90;;
13733;SDS011;43298;52.560;13.508;2023-05-29T00:02:47;10.30;;;9.88;;
13733;SDS011;43298;52.560;13.508;2023-05-29T00:05:17;12.73;;;11.93;;
13733;SDS011;43298;52.560;13.508;2023-05-29T00:07:43;12.23;;;11.63;;
13733;SDS011;43298;52.560;13.508;2023-05-29T00:10:09;12.43;;;11.77;;
13733;SDS011;43298;52.560;13.508;2023-05-29T00:12:36;12.32;;;11.68;;
13733;SDS011;43298;52.560;13.508;2023-05-29T00:15:03;12.57;;;11.98;;
13733;SDS011;43298;52.560;13.508;2023-05-29T00:17:30;13.38;;;12.77;;
13733;SDS011;43298;52.560;13.508;2023-05-29T00:19:57;13.65;;;13.02;;
13733;SDS011;43298;52.560;13.508;2023-05-29T00:22:24;14.77;;;14.18;;
13733;SDS011;43298;52.560;13.508;2023-05-29T00:24:53;15.40;;;14.57;;
13733;SDS011;43298;52.560;13.508;2023-05-29T00:27:19;15.60;;;14.93;;
13733;SDS011;43298;52.560;13.508;2023-05-29T00:29:45;18.52;;;17.73;;
13733;SDS011;43298;52.560;13.508;2023-05-29T00:32:11;20.83;;;19.88;;
13733;SDS011;43298;52.560;13.508;2023-05-29T00:34:37;21.45;;;20.40;;
13733;SDS011;43298;52.560;13.508;2023-05-29T00:37:03;21.95;;;21.02;;
13733;SDS011;43298;52.560;13.508;2023-05-29T00:39:29;23.67;;;22.63;;
13733;SDS011;43298;52.560;13.508;2023-05-29T00:41:55;25.15;;;24.10;;
13733;SDS011;43298;52.560;13.508;2023-05-29T00:44:21;26.15;;;25.02;;
13733;SDS011;43298;52.560;13.508;2023-05-29T00:46:48;26.60;;;25.42;;
13733;SDS011;43298;52.560;13.508;2023-05-29T00:49:17;26.50;;;25.40;;
13733;SDS011;43298;52.560;13.508;2023-05-29T00:51:45;26.35;;;25.23;;
13733;SDS011;43298;52.560;13.508;2023-05-29T00:54:11;26.45;;;25.33;;
13733;SDS011;43298;52.560;13.508;2023-05-29T00:56:42;25.42;;;24.13;;
13733;SDS011;43298;52.560;13.508;2023-05-29T00:59:09;24.85;;;23.55;;
13733;SDS011;43298;52.560;13.508;2023-05-29T01:01:36;25.20;;;24.13;;
13733;SDS011;43298;52.560;13.508;2023-05-29T01:04:04;24.30;;;23.23;;
13733;SDS011;43298;52.560;13.508;2023-05-29T01:06:32;25.10;;;23.92;;
13733;SDS011;43298;52.560;13.508;2023-05-29T01:08:58;24.40;;;23.30;;
13733;SDS011;43298;52.560;13.508;2023-05-29T01:11:26;22.48;;;21.48;;
13733;SDS011;43298;52.560;13.508;2023-05-29T01:14:16;22.35;;;21.38;;
13733;SDS011;43298;52.560;13.508;2023-05-29T01:17:03;20.85;;;19.98;;
13733;SDS011;43298;52.560;13.508;2023-05-29T01:19:46;18.65;;;17.88;;
13733;SDS011;43298;52.560;13.508;2023-05-29T01:29:00;16.20;;;15.25;;
13733;SDS011;43298;52.560;13.508;2023-05-29T01:31:28;15.43;;;14.35;;
13733;SDS011;43298;52.560;13.508;2023-05-29T01:33:56;15.27;;;14.23;;
13733;SDS011;43298;52.560;13.508;2023-05-29T01:36:24;15.50;;;14.80;;
13733;SDS011;43298;52.560;13.508;2023-05-29T01:38:51;13.48;;;12.88;;
13733;SDS011;43298;52.560;13.508;2023-05-29T01:41:20;15.05;;;14.38;;
13733;SDS011;43298;52.560;13.508;2023-05-29T01:43:48;16.00;;;15.23;;
13733;SDS011;43298;52.560;13.508;2023-05-29T01:46:15;13.88;;;13.27;;
13733;SDS011;43298;52.560;13.508;2023-05-29T01:48:43;16.63;;;15.35;;
13733;SDS011;43298;52.560;13.508;2023-05-29T01:51:10;15.13;;;14.32;;
13733;SDS011;43298;52.560;13.508;2023-05-29T01:53:37;14.27;;;13.68;;
13733;SDS011;43298;52.560;13.508;2023-05-29T01:56:05;14.15;;;13.55;;
13733;SDS011;43298;52.560;13.508;2023-05-29T01:58:31;15.10;;;14.40;;
13733;SDS011;43298;52.560;13.508;2023-05-29T02:00:59;21.38;;;15.38;;
13733;SDS011;43298;52.560;13.508;2023-05-29T02:03:28;15.68;;;14.98;;
13733;SDS011;43298;52.560;13.508;2023-05-29T02:05:55;14.15;;;13.55;;
13733;SDS011;43298;52.560;13.508;2023-05-29T02:08:25;15.00;;;14.30;;
13733;SDS011;43298;52.560;13.508;2023-05-29T02:10:52;15.95;;;15.07;;
13733;SDS011;43298;52.560;13.508;2023-05-29T02:13:18;14.23;;;13.55;;
13733;SDS011;43298;52.560;13.508;2023-05-29T02:15:44;16.25;;;15.38;;
13733;SDS011;43298;52.560;13.508;2023-05-29T02:18:10;16.58;;;15.80;;
13733;SDS011;43298;52.560;13.508;2023-05-29T02:20:39;15.50;;;14.80;;
13733;SDS011;43298;52.560;13.508;2023-05-29T02:23:05;14.07;;;13.48;;
13733;SDS011;43298;52.560;13.508;2023-05-29T02:25:34;14.95;;;14.07;;
13733;SDS011;43298;52.560;13.508;2023-05-29T02:28:00;15.00;;;14.18;;
13733;SDS011;43298;52.560;13.508;2023-05-29T02:30:27;14.57;;;13.88;;
13733;SDS011;43298;52.560;13.508;2023-05-29T02:32:53;15.07;;;13.95;;
13733;SDS011;43298;52.560;13.508;2023-05-29T02:35:19;15.30;;;14.57;;
13733;SDS011;43298;52.560;13.508;2023-05-29T02:37:47;15.00;;;14.27;;
13733;SDS011;43298;52.560;13.508;2023-05-29T02:40:17;13.52;;;12.82;;
13733;SDS011;43298;52.560;13.508;2023-05-29T02:42:44;13.95;;;13.35;;
13733;SDS011;43298;52.560;13.508;2023-05-29T02:45:10;13.20;;;12.60;;
13733;SDS011;43298;52.560;13.508;2023-05-29T02:47:37;13.27;;;12.68;;
13733;SDS011;43298;52.560;13.508;2023-05-29T02:50:04;14.73;;;14.02;;
13733;SDS011;43298;52.560;13.508;2023-05-29T02:52:31;22.77;;;14.63;;
13733;SDS011;43298;52.560;13.508;2023-05-29T02:54:57;15.20;;;14.50;;
13733;SDS011;43298;52.560;13.508;2023-05-29T02:57:24;13.55;;;12.95;;
13733;SDS011;43298;52.560;13.508;2023-05-29T02:59:50;13.55;;;12.95;;
13733;SDS011;43298;52.560;13.508;2023-05-29T03:02:17;14.50;;;13.80;;
13733;SDS011;43298;52.560;13.508;2023-05-29T03:04:44;15.05;;;14.25;;
13733;SDS011;43298;52.560;13.508;2023-05-29T03:07:10;14.45;;;13.75;;
13733;SDS011;43298;52.560;13.508;2023-05-29T03:09:35;13.68;;;13.05;;
13733;SDS011;43298;52.560;13.508;2023-05-29T03:12:01;14.50;;;13.63;;
13733;SDS011;43298;52.560;13.508;2023-05-29T03:14:28;14.52;;;13.93;;
13733;SDS011;43298;52.560;13.508;2023-05-29T03:16:54;14.20;;;13.50;;
13733;SDS011;43298;52.560;13.508;2023-05-29T03:19:20;14.00;;;13.30;;
13733;SDS011;43298;52.560;13.508;2023-05-29T03:21:45;13.27;;;12.68;;
13733;SDS011;43298;52.560;13.508;2023-05-29T03:24:11;16.65;;;15.75;;
13733;SDS011;43298;52.560;13.508;2023-05-29T03:26:40;15.40;;;14.70;;
13733;SDS011;43298;52.560;13.508;2023-05-29T03:29:06;14.10;;;13.35;;
13733;SDS011;43298;52.560;13.508;2023-05-29T03:31:32;16.27;;;15.57;;
13733;SDS011;43298;52.560;13.508;2023-05-29T03:33:58;14.75;;;14.07;;
13733;SDS011;43298;52.560;13.508;2023-05-29T03:36:24;14.88;;;14.18;;
13733;SDS011;43298;52.560;13.508;2023-05-29T03:38:50;16.15;;;15.38;;
13733;SDS011;43298;52.560;13.508;2023-05-29T03:41:16;15.65;;;14.85;;
13733;SDS011;43298;52.560;13.508;2023-05-29T03:43:42;15.75;;;15.05;;
13733;SDS011;43298;52.560;13.508;2023-05-29T03:46:08;16.73;;;16.02;;
13733;SDS011;43298;52.560;13.508;2023-05-29T03:48:33;16.80;;;15.30;;
13733;SDS011;43298;52.560;13.508;2023-05-29T03:50:59;16.17;;;15.30;;
13733;SDS011;43298;52.560;13.508;2023-05-29T03:53:25;15.73;;;14.93;;
13733;SDS011;43298;52.560;13.508;2023-05-29T03:55:51;14.35;;;13.75;;
13733;SDS011;43298;52.560;13.508;2023-05-29T03:58:17;14.13;;;13.52;;
13733;SDS011;43298;52.560;13.508;2023-05-29T04:00:42;14.15;;;13.55;;
13733;SDS011;43298;52.560;13.508;2023-05-29T04:03:08;14.18;;;13.52;;
13733;SDS011;43298;52.560;13.508;2023-05-29T04:05:34;13.63;;;13.02;;
13733;SDS011;43298;52.560;13.508;2023-05-29T04:08:00;13.98;;;13.38;;
13733;SDS011;43298;52.560;13.508;2023-05-29T04:10:29;14.35;;;13.65;;
13733;SDS011;43298;52.560;13.508;2023-05-29T04:12:58;15.07;;;14.18;;
13733;SDS011;43298;52.560;13.508;2023-05-29T04:15:25;13.18;;;12.50;;
13733;SDS011;43298;52.560;13.508;2023-05-29T04:17:55;11.75;;;11.20;;
13733;SDS011;43298;52.560;13.508;2023-05-29T04:20:21;12.57;;;11.98;;
13733;SDS011;43298;52.560;13.508;2023-05-29T04:22:48;13.63;;;12.82;;
13733;SDS011;43298;52.560;13.508;2023-05-29T04:25:13;15.23;;;14.43;;
13733;SDS011;43298;52.560;13.508;2023-05-29T04:27:40;15.63;;;14.82;;
13733;SDS011;43298;52.560;13.508;2023-05-29T04:30:07;15.57;;;14.88;;
13733;SDS011;43298;52.560;13.508;2023-05-29T04:32:33;17.25;;;16.52;;
13733;SDS011;43298;52.560;13.508;2023-05-29T04:34:59;16.80;;;16.00;;
13733;SDS011;43298;52.560;13.508;2023-05-29T04:37:28;16.02;;;15.32;;
13733;SDS011;43298;52.560;13.508;2023-05-29T04:39:57;13.05;;;12.35;;
13733;SDS011;43298;52.560;13.508;2023-05-29T04:42:23;10.88;;;10.38;;
13733;SDS011;43298;52.560;13.508;2023-05-29T04:44:50;11.70;;;11.07;;
13733;SDS011;43298;52.560;13.508;2023-05-29T04:47:19;11.95;;;11.45;;
13733;SDS011;43298;52.560;13.508;2023-05-29T04:49:47;12.27;;;11.68;;
13733;SDS011;43298;52.560;13.508;2023-05-29T04:52:14;12.23;;;11.73;;
13733;SDS011;43298;52.560;13.508;2023-05-29T04:54:41;11.88;;;11.38;;
13733;SDS011;43298;52.560;13.508;2023-05-29T04:57:07;13.02;;;12.00;;
13733;SDS011;43298;52.560;13.508;2023-05-29T04:59:33;13.85;;;13.23;;
13733;SDS011;43298;52.560;13.508;2023-05-29T05:02:00;12.85;;;12.30;;
13733;SDS011;43298;52.560;13.508;2023-05-29T05:04:26;14.15;;;13.40;;
13733;SDS011;43298;52.560;13.508;2023-05-29T05:06:52;15.10;;;13.18;;
13733;SDS011;43298;52.560;13.508;2023-05-29T05:09:18;12.77;;;12.18;;
13733;SDS011;43298;52.560;13.508;2023-05-29T05:11:44;12.65;;;12.05;;
13733;SDS011;43298;52.560;13.508;2023-05-29T05:14:09;12.80;;;12.30;;
13733;SDS011;43298;52.560;13.508;2023-05-29T05:16:35;11.73;;;11.23;;
13733;SDS011;43298;52.560;13.508;2023-05-29T05:19:01;12.85;;;12.25;;
13733;SDS011;43298;52.560;13.508;2023-05-29T05:21:27;12.52;;;11.93;;
13733;SDS011;43298;52.560;13.508;2023-05-29T05:23:55;13.07;;;12.48;;
13733;SDS011;43298;52.560;13.508;2023-05-29T05:26:21;12.43;;;11.93;;
13733;SDS011;43298;52.560;13.508;2023-05-29T05:28:47;12.38;;;11.85;;
13733;SDS011;43298;52.560;13.508;2023-05-29T05:31:13;12.35;;;11.75;;
13733;SDS011;43298;52.560;13.508;2023-05-29T05:33:39;12.95;;;12.45;;
13733;SDS011;43298;52.560;13.508;2023-05-29T05:36:05;11.77;;;11.27;;
13733;SDS011;43298;52.560;13.508;2023-05-29T05:38:31;12.52;;;11.85;;
13733;SDS011;43298;52.560;13.508;2023-05-29T05:40:57;12.02;;;11.52;;
13733;SDS011;43298;52.560;13.508;2023-05-29T05:43:23;13.55;;;12.15;;
13733;SDS011;43298;52.560;13.508;2023-05-29T05:45:51;12.57;;;11.98;;
13733;SDS011;43298;52.560;13.508;2023-05-29T05:48:17;11.82;;;11.32;;
13733;SDS011;43298;52.560;13.508;2023-05-29T05:50:43;13.10;;;12.50;;
13733;SDS011;43298;52.560;13.508;2023-05-29T05:53:08;13.20;;;12.60;;
13733;SDS011;43298;52.560;13.508;2023-05-29T05:55:34;12.85;;;12.30;;
13733;SDS011;43298;52.560;13.508;2023-05-29T05:58:00;14.40;;;13.80;;
13733;SDS011;43298;52.560;13.508;2023-05-29T06:00:26;12.93;;;12.35;;
13733;SDS011;43298;52.560;13.508;2023-05-29T06:02:53;13.73;;;13.13;;
13733;SDS011;43298;52.560;13.508;2023-05-29T06:05:18;13.70;;;13.10;;
13733;SDS011;43298;52.560;13.508;2023-05-29T06:07:44;13.43;;;12.82;;
13733;SDS011;43298;52.560;13.508;2023-05-29T06:10:10;14.85;;;14.15;;
13733;SDS011;43298;52.560;13.508;2023-05-29T06:12:36;15.23;;;14.60;;
13733;SDS011;43298;52.560;13.508;2023-05-29T06:15:02;17.10;;;13.57;;
13733;SDS011;43298;52.560;13.508;2023-05-29T06:17:29;15.27;;;14.57;;
13733;SDS011;43298;52.560;13.508;2023-05-29T06:19:55;11.88;;;11.38;;
13733;SDS011;43298;52.560;13.508;2023-05-29T06:22:20;12.90;;;12.40;;
13733;SDS011;43298;52.560;13.508;2023-05-29T06:24:46;13.38;;;12.77;;
13733;SDS011;43298;52.560;13.508;2023-05-29T06:27:12;12.10;;;11.60;;
13733;SDS011;43298;52.560;13.508;2023-05-29T06:29:38;11.73;;;11.23;;
13733;SDS011;43298;52.560;13.508;2023-05-29T06:32:03;16.38;;;15.52;;
13733;SDS011;43298;52.560;13.508;2023-05-29T06:34:30;13.38;;;12.77;;
13733;SDS011;43298;52.560;13.508;2023-05-29T06:36:56;15.05;;;14.35;;
13733;SDS011;43298;52.560;13.508;2023-05-29T06:39:21;18.98;;;18.10;;
13733;SDS011;43298;52.560;13.508;2023-05-29T06:41:47;15.05;;;14.45;;
13733;SDS011;43298;52.560;13.508;2023-05-29T06:44:13;13.57;;;12.98;;
13733;SDS011;43298;52.560;13.508;2023-05-29T06:46:39;12.38;;;11.88;;
13733;SDS011;43298;52.560;13.508;2023-05-29T06:49:05;15.13;;;14.38;;
13733;SDS011;43298;52.560;13.508;2023-05-29T06:51:30;15.73;;;14.93;;
13733;SDS011;43298;52.560;13.508;2023-05-29T06:53:58;14.40;;;13.77;;
13733;SDS011;43298;52.560;13.508;2023-05-29T06:56:23;14.85;;;14.25;;
13733;SDS011;43298;52.560;13.508;2023-05-29T06:58:51;16.30;;;15.60;;
13733;SDS011;43298;52.560;13.508;2023-05-29T07:01:17;15.55;;;14.85;;
13733;SDS011;43298;52.560;13.508;2023-05-29T07:03:43;14.48;;;13.85;;
13733;SDS011;43298;52.560;13.508;2023-05-29T07:06:11;14.38;;;13.77;;
13733;SDS011;43298;52.560;13.508;2023-05-29T07:08:36;14.73;;;14.02;;
13733;SDS011;43298;52.560;13.508;2023-05-29T07:11:02;14.68;;;13.93;;
13733;SDS011;43298;52.560;13.508;2023-05-29T07:13:28;16.23;;;15.52;;
13733;SDS011;43298;52.560;13.508;2023-05-29T07:15:54;16.52;;;15.27;;
13733;SDS011;43298;52.560;13.508;2023-05-29T07:18:20;16.40;;;15.70;;
13733;SDS011;43298;52.560;13.508;2023-05-29T07:20:45;15.63;;;14.73;;
13733;SDS011;43298;52.560;13.508;2023-05-29T07:23:11;16.00;;;14.88;;
13733;SDS011;43298;52.560;13.508;2023-05-29T07:25:37;16.70;;;15.98;;
13733;SDS011;43298;52.560;13.508;2023-05-29T07:28:03;15.60;;;14.90;;
13733;SDS011;43298;52.560;13.508;2023-05-29T07:30:28;14.75;;;14.07;;
13733;SDS011;43298;52.560;13.508;2023-05-29T07:32:54;16.10;;;15.40;;
13733;SDS011;43298;52.560;13.508;2023-05-29T07:35:20;16.48;;;15.68;;
13733;SDS011;43298;52.560;13.508;2023-05-29T07:37:47;15.40;;;14.70;;
13733;SDS011;43298;52.560;13.508;2023-05-29T07:40:14;14.77;;;14.18;;
13733;SDS011;43298;52.560;13.508;2023-05-29T07:42:40;17.25;;;16.55;;
13733;SDS011;43298;52.560;13.508;2023-05-29T07:45:06;18.80;;;17.98;;
13733;SDS011;43298;52.560;13.508;2023-05-29T07:47:32;18.88;;;17.88;;
13733;SDS011;43298;52.560;13.508;2023-05-29T07:49:58;20.27;;;19.40;;
13733;SDS011;43298;52.560;13.508;2023-05-29T07:52:24;18.35;;;17.55;;
13733;SDS011;43298;52.560;13.508;2023-05-29T07:54:50;19.60;;;18.80;;
13733;SDS011;43298;52.560;13.508;2023-05-29T07:57:15;18.38;;;17.48;;
13733;SDS011;43298;52.560;13.508;2023-05-29T07:59:41;17.65;;;16.85;;
13733;SDS011;43298;52.560;13.508;2023-05-29T08:02:08;15.00;;;14.40;;
13733;SDS011;43298;52.560;13.508;2023-05-29T08:04:34;16.70;;;16.00;;
13733;SDS011;43298;52.560;13.508;2023-05-29T08:07:01;17.30;;;16.60;;
13733;SDS011;43298;52.560;13.508;2023-05-29T08:09:31;19.30;;;18.50;;
13733;SDS011;43298;52.560;13.508;2023-05-29T08:11:57;20.70;;;19.80;;
13733;SDS011;43298;52.560;13.508;2023-05-29T08:14:25;23.08;;;22.08;;
13733;SDS011;43298;52.560;13.508;2023-05-29T08:16:51;21.38;;;20.48;;
13733;SDS011;43298;52.560;13.508;2023-05-29T08:19:17;22.25;;;21.35;;
13733;SDS011;43298;52.560;13.508;2023-05-29T08:21:43;23.55;;;22.52;;
13733;SDS011;43298;52.560;13.508;2023-05-29T08:24:09;21.20;;;20.30;;
13733;SDS011;43298;52.560;13.508;2023-05-29T08:26:34;22.88;;;21.95;;
13733;SDS011;43298;52.560;13.508;2023-05-29T08:29:01;20.83;;;19.92;;
13733;SDS011;43298;52.560;13.508;2023-05-29T08:31:27;20.73;;;19.85;;
13733;SDS011;43298;52.560;13.508;2023-05-29T08:33:53;19.85;;;18.95;;
13733;SDS011;43298;52.560;13.508;2023-05-29T08:36:19;19.88;;;18.88;;
13733;SDS011;43298;52.560;13.508;2023-05-29T08:38:48;20.50;;;19.60;;
13733;SDS011;43298;52.560;13.508;2023-05-29T08:41:19;20.88;;;19.98;;
13733;SDS011;43298;52.560;13.508;2023-05-29T08:43:52;17.10;;;16.40;;
13733;SDS011;43298;52.560;13.508;2023-05-29T08:46:18;18.05;;;17.25;;
13733;SDS011;43298;52.560;13.508;2023-05-29T08:48:47;18.67;;;17.88;;
13733;SDS011;43298;52.560;13.508;2023-05-29T08:51:20;17.73;;;16.98;;
13733;SDS011;43298;52.560;13.508;2023-05-29T08:53:48;17.80;;;17.00;;
13733;SDS011;43298;52.560;13.508;2023-05-29T08:56:16;18.27;;;17.48;;
13733;SDS011;43298;52.560;13.508;2023-05-29T08:58:42;17.67;;;16.83;;
13733;SDS011;43298;52.560;13.508;2023-05-29T09:01:09;19.92;;;18.92;;
13733;SDS011;43298;52.560;13.508;2023-05-29T09:03:36;19.65;;;18.75;;
13733;SDS011;43298;52.560;13.508;2023-05-29T09:06:03;21.35;;;20.42;;
13733;SDS011;43298;52.560;13.508;2023-05-29T09:08:32;21.65;;;20.65;;
13733;SDS011;43298;52.560;13.508;2023-05-29T09:10:58;19.98;;;19.08;;
13733;SDS011;43298;52.560;13.508;2023-05-29T09:13:23;21.10;;;20.20;;
13733;SDS011;43298;52.560;13.508;2023-05-29T09:15:49;18.42;;;17.63;;
13733;SDS011;43298;52.560;13.508;2023-05-29T09:18:16;19.17;;;18.38;;
13733;SDS011;43298;52.560;13.508;2023-05-29T09:20:42;20.38;;;19.48;;
13733;SDS011;43298;52.560;13.508;2023-05-29T09:23:09;20.45;;;19.52;;
13733;SDS011;43298;52.560;13.508;2023-05-29T09:25:44;19.45;;;18.63;;
13733;SDS011;43298;52.560;13.508;2023-05-29T09:28:18;21.23;;;20.33;;
13733;SDS011;43298;52.560;13.508;2023-05-29T09:30:46;21.67;;;20.75;;
13733;SDS011;43298;52.560;13.508;2023-05-29T09:33:13;21.02;;;20.13;;
13733;SDS011;43298;52.560;13.508;2023-05-29T09:35:41;19.23;;;18.42;;
13733;SDS011;43298;52.560;13.508;2023-05-29T09:38:09;17.67;;;16.90;;
13733;SDS011;43298;52.560;13.508;2023-05-29T09:40:37;16.88;;;16.17;;
13733;SDS011;43298;52.560;13.508;2023-05-29T09:43:12;16.58;;;15.88;;
13733;SDS011;43298;52.560;13.508;2023-05-29T09:45:43;16.95;;;16.00;;
13733;SDS011;43298;52.560;13.508;2023-05-29T09:48:17;16.67;;;15.98;;
13733;SDS011;43298;52.560;13.508;2023-05-29T09:50:48;18.42;;;17.60;;
13733;SDS011;43298;52.560;13.508;2023-05-29T09:55:54;17.25;;;16.45;;
13733;SDS011;43298;52.560;13.508;2023-05-29T09:58:21;18.08;;;17.27;;
13733;SDS011;43298;52.560;13.508;2023-05-29T10:00:49;18.17;;;17.17;;
13733;SDS011;43298;52.560;13.508;2023-05-29T10:03:19;17.48;;;16.73;;
13733;SDS011;43298;52.560;13.508;2023-05-29T10:05:49;19.90;;;18.90;;
13733;SDS011;43298;52.560;13.508;2023-05-29T10:08:18;19.05;;;18.25;;
13733;SDS011;43298;52.560;13.508;2023-05-29T10:10:53;19.35;;;18.55;;
13733;SDS011;43298;52.560;13.508;2023-05-29T10:13:27;18.27;;;17.27;;
13733;SDS011;43298;52.560;13.508;2023-05-29T10:15:56;19.27;;;18.48;;
13733;SDS011;43298;52.560;13.508;2023-05-29T10:18:24;19.67;;;18.80;;
13733;SDS011;43298;52.560;13.508;2023-05-29T10:20:58;19.10;;;18.10;;
13733;SDS011;43298;52.560;13.508;2023-05-29T10:23:26;17.83;;;17.00;;
13733;SDS011;43298;52.560;13.508;2023-05-29T10:26:10;17.02;;;16.23;;
13733;SDS011;43298;52.560;13.508;2023-05-29T10:28:46;18.40;;;17.60;;
13733;SDS011;43298;52.560;13.508;2023-05-29T10:31:33;16.70;;;16.00;;
13733;SDS011;43298;52.560;13.508;2023-05-29T10:40:05;16.15;;;15.25;;
13733;SDS011;43298;52.560;13.508;2023-05-29T10:42:47;15.50;;;14.80;;
13733;SDS011;43298;52.560;13.508;2023-05-29T10:47:56;18.05;;;16.92;;
13733;SDS011;43298;52.560;13.508;2023-05-29T10:50:42;16.35;;;15.65;;
13733;SDS011;43298;52.560;13.508;2023-05-29T10:53:10;15.55;;;14.93;;
13733;SDS011;43298;52.560;13.508;2023-05-29T10:55:42;17.25;;;16.55;;
13733;SDS011;43298;52.560;13.508;2023-05-29T10:58:23;17.73;;;16.92;;
13733;SDS011;43298;52.560;13.508;2023-05-29T11:00:51;19.35;;;18.55;;
13733;SDS011;43298;52.560;13.508;2023-05-29T11:03:22;19.90;;;19.00;;
13733;SDS011;43298;52.560;13.508;2023-05-29T11:06:07;17.33;;;16.60;;
13733;SDS011;43298;52.560;13.508;2023-05-29T11:08:53;17.67;;;16.98;;
13733;SDS011;43298;52.560;13.508;2023-05-29T11:13:53;17.85;;;17.05;;
13733;SDS011;43298;52.560;13.508;2023-05-29T11:18:54;14.30;;;13.70;;
13733;SDS011;43298;52.560;13.508;2023-05-29T11:24:31;16.40;;;15.70;;
13733;SDS011;43298;52.560;13.508;2023-05-29T11:26:58;15.10;;;14.50;;
13733;SDS011;43298;52.560;13.508;2023-05-29T11:29:29;18.48;;;17.67;;
13733;SDS011;43298;52.560;13.508;2023-05-29T11:31:58;19.17;;;18.38;;
13733;SDS011;43298;52.560;13.508;2023-05-29T11:34:30;21.20;;;19.15;;
13733;SDS011;43298;52.560;13.508;2023-05-29T11:37:01;17.73;;;17.00;;
13733;SDS011;43298;52.560;13.508;2023-05-29T11:39:28;19.83;;;18.92;;
13733;SDS011;43298;52.560;13.508;2023-05-29T11:41:55;21.15;;;19.90;;
13733;SDS011;43298;52.560;13.508;2023-05-29T11:44:24;18.83;;;18.02;;
13733;SDS011;43298;52.560;13.508;2023-05-29T11:47:01;21.35;;;20.42;;
13733;SDS011;43298;52.560;13.508;2023-05-29T11:49:31;19.50;;;18.70;;
13733;SDS011;43298;52.560;13.508;2023-05-29T11:52:09;22.48;;;21.50;;
13733;SDS011;43298;52.560;13.508;2023-05-29T11:54:38;20.13;;;19.25;;
13733;SDS011;43298;52.560;13.508;2023-05-29T11:57:05;22.20;;;21.13;;
13733;SDS011;43298;52.560;13.508;2023-05-29T11:59:31;20.77;;;19.92;;
13733;SDS011;43298;52.560;13.508;2023-05-29T12:01:58;21.38;;;20.42;;
13733;SDS011;43298;52.560;13.508;2023-05-29T12:04:28;20.95;;;20.05;;
13733;SDS011;43298;52.560;13.508;2023-05-29T12:06:54;20.38;;;19.48;;
13733;SDS011;43298;52.560;13.508;2023-05-29T12:09:24;19.45;;;18.55;;
13733;SDS011;43298;52.560;13.508;2023-05-29T12:11:54;17.35;;;16.65;;
13733;SDS011;43298;52.560;13.508;2023-05-29T12:14:27;16.88;;;15.98;;
13733;SDS011;43298;52.560;13.508;2023-05-29T12:16:53;16.05;;;15.35;;
13733;SDS011;43298;52.560;13.508;2023-05-29T12:19:19;17.05;;;16.35;;
13733;SDS011;43298;52.560;13.508;2023-05-29T12:21:45;18.13;;;17.33;;
13733;SDS011;43298;52.560;13.508;2023-05-29T12:24:11;20.63;;;19.73;;
13733;SDS011;43298;52.560;13.508;2023-05-29T12:26:37;23.35;;;22.15;;
13733;SDS011;43298;52.560;13.508;2023-05-29T12:29:03;21.30;;;20.40;;
13733;SDS011;43298;52.560;13.508;2023-05-29T12:31:32;22.40;;;21.40;;
13733;SDS011;43298;52.560;13.508;2023-05-29T12:34:02;21.45;;;20.55;;
13733;SDS011;43298;52.560;13.508;2023-05-29T12:36:35;22.65;;;21.65;;
13733;SDS011;43298;52.560;13.508;2023-05-29T12:39:04;21.23;;;20.23;;
13733;SDS011;43298;52.560;13.508;2023-05-29T12:41:34;21.02;;;20.13;;
13733;SDS011;43298;52.560;13.508;2023-05-29T12:44:02;20.30;;;19.40;;
13733;SDS011;43298;52.560;13.508;2023-05-29T12:46:42;20.13;;;19.25;;
13733;SDS011;43298;52.560;13.508;2023-05-29T12:49:15;20.63;;;19.73;;
13733;SDS011;43298;52.560;13.508;2023-05-29T12:51:45;22.15;;;21.17;;
13733;SDS011;43298;52.560;13.508;2023-05-29T12:54:11;21.80;;;20.83;;
13733;SDS011;43298;52.560;13.508;2023-05-29T12:56:39;17.83;;;16.77;;
13733;SDS011;43298;52.560;13.508;2023-05-29T12:59:09;16.95;;;16.25;;
13733;SDS011;43298;52.560;13.508;2023-05-29T13:01:36;18.20;;;17.10;;
13733;SDS011;43298;52.560;13.508;2023-05-29T13:04:05;18.13;;;17.33;;
13733;SDS011;43298;52.560;13.508;2023-05-29T13:06:33;19.35;;;18.45;;
13733;SDS011;43298;52.560;13.508;2023-05-29T13:09:08;17.98;;;17.17;;
13733;SDS011;43298;52.560;13.508;2023-05-29T13:11:34;18.75;;;17.95;;
13733;SDS011;43298;52.560;13.508;2023-05-29T13:13:59;18.98;;;18.17;;
13733;SDS011;43298;52.560;13.508;2023-05-29T13:16:25;17.65;;;16.85;;
13733;SDS011;43298;52.560;13.508;2023-05-29T13:18:51;18.20;;;17.40;;
13733;SDS011;43298;52.560;13.508;2023-05-29T13:21:17;17.58;;;16.73;;
13733;SDS011;43298;52.560;13.508;2023-05-29T13:23:43;16.40;;;15.70;;
13733;SDS011;43298;52.560;13.508;2023-05-29T13:26:08;17.63;;;16.83;;
13733;SDS011;43298;52.560;13.508;2023-05-29T13:28:34;16.10;;;15.40;;
13733;SDS011;43298;52.560;13.508;2023-05-29T13:31:00;19.35;;;18.45;;
13733;SDS011;43298;52.560;13.508;2023-05-29T13:33:26;17.02;;;16.23;;
13733;SDS011;43298;52.560;13.508;2023-05-29T13:35:52;16.98;;;16.27;;
13733;SDS011;43298;52.560;13.508;2023-05-29T13:38:17;18.63;;;17.83;;
13733;SDS011;43298;52.560;13.508;2023-05-29T13:40:43;18.90;;;18.02;;
13733;SDS011;43298;52.560;13.508;2023-05-29T13:43:09;19.25;;;18.45;;
13733;SDS011;43298;52.560;13.508;2023-05-29T13:45:35;18.30;;;17.50;;
13733;SDS011;43298;52.560;13.508;2023-05-29T13:48:01;16.27;;;15.57;;
13733;SDS011;43298;52.560;13.508;2023-05-29T13:50:27;16.25;;;15.55;;
13733;SDS011;43298;52.560;13.508;2023-05-29T13:52:53;17.20;;;15.57;;
13733;SDS011;43298;52.560;13.508;2023-05-29T13:55:18;17.92;;;17.13;;
13733;SDS011;43298;52.560;13.508;2023-05-29T13:57:44;16.73;;;16.00;;
13733;SDS011;43298;52.560;13.508;2023-05-29T14:00:10;16.20;;;15.50;;
13733;SDS011;43298;52.560;13.508;2023-05-29T14:02:37;16.52;;;15.82;;
13733;SDS011;43298;52.560;13.508;2023-05-29T14:05:03;17.27;;;16.58;;
13733;SDS011;43298;52.560;13.508;2023-05-29T14:07:31;17.50;;;16.70;;
13733;SDS011;43298;52.560;13.508;2023-05-29T14:09:58;19.58;;;18.77;;
13733;SDS011;43298;52.560;13.508;2023-05-29T14:12:23;17.52;;;16.73;;
13733;SDS011;43298;52.560;13.508;2023-05-29T14:14:49;16.58;;;15.88;;
13733;SDS011;43298;52.560;13.508;2023-05-29T14:17:15;18.50;;;17.70;;
13733;SDS011;43298;52.560;13.508;2023-05-29T14:19:41;17.10;;;16.30;;
13733;SDS011;43298;52.560;13.508;2023-05-29T14:22:07;18.63;;;17.50;;
13733;SDS011;43298;52.560;13.508;2023-05-29T14:24:33;16.27;;;15.57;;
13733;SDS011;43298;52.560;13.508;2023-05-29T14:27:01;15.95;;;15.15;;
13733;SDS011;43298;52.560;13.508;2023-05-29T14:29:27;17.63;;;16.83;;
13733;SDS011;43298;52.560;13.508;2023-05-29T14:31:53;17.30;;;16.50;;
13733;SDS011;43298;52.560;13.508;2023-05-29T14:34:18;17.83;;;17.02;;
13733;SDS011;43298;52.560;13.508;2023-05-29T14:36:44;16.52;;;15.82;;